This is the latest recevied weather packets stored in our database for station/object VK3BKO-13. If no packets are shown the sender has not sent any weather packets the latest 10 day(s).
| Time | Temp. | Humidity | Pressure | Rain* | Wind** | Luminosity | Snow |
|---|---|---|---|---|---|---|---|
| 1777801624 | 14.44° C | 79% | 1011.9 hPa | 0 mm | - | 0 W/m² | - |
| 1777800724 | 14.44° C | 80% | 1012.6 hPa | 0 mm | - | 0 W/m² | - |
| 1777799824 | 14.44° C | 79% | 1012.2 hPa | 0 mm | - | 0 W/m² | - |
| 1777798923 | 14.44° C | 79% | 1011.9 hPa | 0 mm | - | 0 W/m² | - |
| 1777798024 | 13.33° C | 88% | 1011.2 hPa | 0 mm | - | 0 W/m² | - |
| 1777797124 | 13.89° C | 88% | 1010.5 hPa | 0 mm | - | 0 W/m² | - |
| 1777796224 | 14.44° C | 87% | 1010.5 hPa | 0 mm | - | 0 W/m² | - |
| 1777795324 | 15° C | 85% | 1010.5 hPa | 0 mm | - | 0 W/m² | - |
| 1777794424 | 15.56° C | 82% | 1010.5 hPa | 0 mm | - | 0 W/m² | - |
| 1777793524 | 16.67° C | 80% | 1010.5 hPa | 0 mm | - | 3 W/m² | - |
| 1777792623 | 17.22° C | 78% | 1009.9 hPa | 0 mm | - | 12 W/m² | - |
| 1777791723 | 17.78° C | 77% | 1009.9 hPa | 0 mm | - | 25 W/m² | - |
| 1777790823 | 17.78° C | 79% | 1009.9 hPa | 0 mm | - | 44 W/m² | - |
| 1777789924 | 17.22° C | 82% | 1009.9 hPa | 0 mm | - | 65 W/m² | - |
| 1777789024 | 16.67° C | 84% | 1009.9 hPa | 0 mm | - | 32 W/m² | - |
| 1777788124 | 16.67° C | 86% | 1009.9 hPa | 0 mm | - | 52 W/m² | - |
| 1777787224 | 16.67° C | 85% | 1009.9 hPa | 0.51 mm | - | 38 W/m² | - |
| 1777786324 | 17.22° C | 86% | 1009.9 hPa | 0.25 mm | - | 32 W/m² | - |
| 1777785424 | 16.67° C | 87% | 1009.9 hPa | 0.25 mm | - | 33 W/m² | - |
| 1777784524 | 18.33° C | 88% | 1009.9 hPa | 0.25 mm | - | 26 W/m² | - |
| 1777783624 | 18.89° C | 84% | 1009.5 hPa | 0.51 mm | - | 16 W/m² | - |
| 1777782724 | 20° C | 76% | 1009.2 hPa | 0 mm | - | 107 W/m² | - |
| 1777781823 | 21.11° C | 73% | 1009.2 hPa | 0 mm | - | 392 W/m² | - |
| 1777780923 | 20.56° C | 75% | 1009.2 hPa | 0 mm | - | 515 W/m² | - |
| 1777780023 | 20.56° C | 75% | 1009.2 hPa | 0 mm | - | 478 W/m² | - |
* Rain latest hour (hover to see other rain measurements)
** Current wind speed in m/s (hover to see current wind gust speed)